Tuesday, May 24, 2016
19:34 UTC
  |  Log In   |  Register Free
Airport Search:

Shenandoah Valley Regional Airport
(KSHD)

Shenandoah Valley Regional Airport Diagram
No Airport Diagram Available

FAA data valid effective Mar 31 2016 - May 26 2016 (unless otherwise noted).

 
 
 
 
 
 
 
 
 
 
 
 
 
 
Current Aviation Weather for KSHD

Weather Summary


The most recent METAR observation for SHD was updated at: 12:55 UTC
METAR for KSHD is not available. Closest METAR is for KW13
KSHD  (most recent observation was updatred at 24:19 UTC)
241915Z AUTO 27004KT 10SM SCT090 25/08 A3007 RMK AO2 T02480078

KW13  (11.4 nm NE)   (most recent observation was updated at 24:19 UTC)
241915Z AUTO 22006KT 10SM SCT095 25/10 A3007 RMK AO1 T02520104

KCHO  (22.2 nm NW)   (most recent observation was updated at 24:18 UTC)
241853Z 00000KT 10SM CLR 28/09 A3003 RMK AO2 SLP161 T02780089

TAF for KSHD is not available.
KCHO  (22.2 nm NW)   (most recent observation was updatred at 24:17 UTC)
241720Z 2418/2518 30007KT P6SM SCT060 FM242300 24004KT P6SM FEW060


GlobalAir.com is loading additional information.
 Current Weather at SHD
77.0 F° (25.2 C°)

Northwest winds at 10.4 mph
Pressure:
30.09 in
Humidity:
36%
Wind:
Northwest at 10.4 mph
Dew Point:
48.6 F° (9.2 C°)
Visibility:
10.00 mi
SHD NOAA Radar




Find All Airport Services Find A Hotel Find A Rental Car Find A Golf Course Find A Restaurant $100 Hamburger



Airport Weather Forecast for KSHD

Translated METAR for KSHD (1915 UTC)
METAR:
KSHD 241915Z AUTO 27004KT 10SM SCT090 25/08 A3007 RMK AO2 T02480078
Conditions at:
KSHD (Shenandoah Valley Rgnl, VA) observed 1915 UTC 24 May 2016
Temperature:
25°C (77°F)
Dewpoint:
8°C (46.4°F) [RH = 33.9]
Pressure:
30.07 inches Hg (1018.3 mb)
Winds:
from the W (270 degrees) at 4.6 mph (4 knots: 2.1 m/s)
Visibility:
10 mile(s)
Ceiling:
at least 12,000 feet AGL
Clouds:
Scattered Clouds at 9,000 feet AGL
Remarks:
site is un-manned
site is automated and HAS a precipitation sensor

Translated TAF for KCHO (Charlottesville-Albemarle, VA) (1720 UTC)
TAF text:
KCHO 241720Z 2418/2518 30007KT P6SM SCT060
Forecast period:
Tuesday May 24 2016 18:00 UTC - Wednesday May 25 2016 18:00 UTC
Forecast type:
FROM: standard forecast or significant change
Winds:
from the WNW (300 degrees) at 8.1 mph (7 knots: 3.6 m/s)
Visibility:
6 or more mile(s) (9.7+ km)
Ceiling:
at least 12,000 feet AGL
Clouds:
Scattered Clouds at 6,000 feet AGL
Weather:
no significant weather observed at this time
TAF text:
FM242300 24004KT P6SM FEW060
Forecast period:
Tuesday May 24 2016 23:00 UTC - Wednesday May 25 2016 18:00 UTC
Forecast type:
FROM: standard forecast or significant change
Winds:
from the WSW (240 degrees) at 4.6 mph (4 knots: 2.1 m/s)
Visibility:
6 or more mile(s) (9.7+ km)
Ceiling:
at least 12,000 feet AGL
Clouds:
Few Clouds at 6,000 feet AGL
Weather:
no significant weather observed at this time
FBO's on the Field
FBO Company Facility Photos Services Transportation Aviation Fuel Prices: Prices include tax
Catering Weather Repair Courtesy Rental Type 100LL JetA JetA+ MOGAS 8087
 
Avnet Shenandoah Valley

This FBO has not yet been rated
FS:Avfuel
Last Updated: Apr-29
Login to update fuel prices
SS:
Contact Avnet Shenandoah ValleyMore FBO Information
 
Add another FBO Facility Photos Catering Weather Repair Courtesy Rental Type 100LL JetA JetA+ MOGAS 8087
Services Transportation Aviation Fuel Prices: Prices include tax


model-print
model-print
model-print
model-print